Time;durP1;ratioP1;P1;durP2;ratioP2;P2;SDS_P1;SDS_P2;PMS_P1;PMS_P2;Temp;Humidity;BMP_temperature;BMP_pressure;BME280_temperature;BME280_humidity;BME280_pressure;Samples;Min_cycle;Max_cycle;Signal;HPM_P1;HPM_P2
2021/01/09 00:02:16;;;;;;;17.27;11.18;;;6.20;60.80;;;;;;5052938;28;20025;-72
2021/01/09 00:04:42;;;;;;;19.65;11.95;;;6.20;60.80;;;;;;5052832;28;20509;-72
2021/01/09 00:07:10;;;;;;;22.45;12.45;;;6.20;60.80;;;;;;5052728;28;20071;-71
2021/01/09 00:09:37;;;;;;;20.65;12.70;;;6.20;60.80;;;;;;5052746;28;20031;-71
2021/01/09 00:12:04;;;;;;;18.85;11.93;;;6.20;60.80;;;;;;5052812;28;20029;-71
2021/01/09 00:14:30;;;;;;;17.88;11.23;;;6.20;60.80;;;;;;5052836;28;20467;-71
2021/01/09 00:16:55;;;;;;;21.55;11.98;;;6.20;60.80;;;;;;5056206;28;20029;-70
2021/01/09 00:19:21;;;;;;;20.15;12.52;;;6.20;60.80;;;;;;5052642;28;20028;-70
2021/01/09 00:21:47;;;;;;;19.50;12.00;;;6.20;60.70;;;;;;5052668;28;20028;-71
2021/01/09 00:24:13;;;;;;;22.33;12.48;;;6.20;60.60;;;;;;5055118;28;20036;-71
2021/01/09 00:26:39;;;;;;;20.55;12.38;;;6.20;60.60;;;;;;5065475;28;20021;-71
2021/01/09 00:29:05;;;;;;;20.60;12.50;;;6.20;60.60;;;;;;5052305;28;20029;-71
2021/01/09 00:31:32;;;;;;;19.45;12.45;;;6.10;60.60;;;;;;5052257;28;20037;-71
2021/01/09 00:33:58;;;;;;;21.27;12.45;;;6.10;60.60;;;;;;5053931;28;20544;-71
2021/01/09 00:36:23;;;;;;;18.33;11.23;;;6.10;60.60;;;;;;5056155;28;20025;-71
2021/01/09 00:38:49;;;;;;;20.60;12.55;;;6.10;60.60;;;;;;5054895;28;20021;-70
2021/01/09 00:41:15;;;;;;;22.27;13.43;;;6.10;60.80;;;;;;5055971;28;20057;-70
2021/01/09 00:43:40;;;;;;;20.58;12.32;;;6.10;60.70;;;;;;5056013;28;20091;-71
2021/01/09 00:46:06;;;;;;;20.48;13.32;;;6.10;60.80;;;;;;5056169;28;20025;-71
2021/01/09 00:48:32;;;;;;;22.52;12.52;;;6.10;60.70;;;;;;5055894;28;20040;-71
2021/01/09 00:50:58;;;;;;;20.20;11.73;;;6.10;60.70;;;;;;5055716;28;20390;-71
2021/01/09 00:53:23;;;;;;;19.70;12.88;;;6.10;60.80;;;;;;5055813;28;20024;-71
2021/01/09 00:55:49;;;;;;;18.60;11.88;;;6.10;60.90;;;;;;5055755;28;20024;-71
2021/01/09 00:58:15;;;;;;;18.23;11.50;;;6.10;60.90;;;;;;5054502;28;20021;-71
2021/01/09 01:00:41;;;;;;;20.90;13.48;;;6.10;60.80;;;;;;5059342;28;20024;-71
2021/01/09 01:03:06;;;;;;;19.73;12.35;;;6.10;60.90;;;;;;5055978;28;20409;-71
2021/01/09 01:05:32;;;;;;;17.38;11.13;;;6.10;60.80;;;;;;5055647;28;20431;-71
2021/01/09 01:07:58;;;;;;;17.50;11.40;;;6.10;60.90;;;;;;5055582;28;20103;-71
2021/01/09 01:10:24;;;;;;;20.58;13.13;;;6.10;60.80;;;;;;5056487;28;20025;-71
2021/01/09 01:12:52;;;;;;;20.20;12.77;;;6.00;60.80;;;;;;5055649;28;20025;-70
2021/01/09 01:15:18;;;;;;;17.45;11.02;;;6.00;60.80;;;;;;5060869;28;20025;-71
2021/01/09 01:17:48;;;;;;;20.27;12.98;;;6.00;60.90;;;;;;5055542;28;20482;-71
2021/01/09 01:20:13;;;;;;;20.23;12.75;;;6.00;61.00;;;;;;5074466;28;20031;-71
2021/01/09 01:22:39;;;;;;;20.02;12.20;;;6.00;61.00;;;;;;5074303;28;20103;-71
2021/01/09 01:25:06;;;;;;;18.15;11.57;;;6.00;61.00;;;;;;5067346;28;20127;-71
2021/01/09 01:27:32;;;;;;;18.98;12.02;;;6.00;61.10;;;;;;5062676;28;20045;-71
2021/01/09 01:29:58;;;;;;;19.90;11.85;;;6.00;61.00;;;;;;5054315;28;20027;-71
2021/01/09 01:32:24;;;;;;;16.45;10.70;;;6.00;61.00;;;;;;5064268;28;20059;-71
2021/01/09 01:34:49;;;;;;;25.23;12.85;;;6.00;61.00;;;;;;5074272;28;20032;-72
2021/01/09 01:37:15;;;;;;;18.52;12.02;;;6.00;61.10;;;;;;5069282;28;20021;-71
2021/01/09 01:39:41;;;;;;;20.50;12.85;;;6.10;61.10;;;;;;5054173;28;20059;-71
2021/01/09 01:42:07;;;;;;;18.77;11.30;;;6.10;61.10;;;;;;5054119;28;20385;-72
2021/01/09 01:44:33;;;;;;;19.08;12.27;;;6.10;61.00;;;;;;5054032;28;20092;-71
2021/01/09 01:47:01;;;;;;;19.60;11.48;;;6.10;60.90;;;;;;5054095;28;20032;-71
2021/01/09 01:49:28;;;;;;;19.45;13.13;;;6.10;60.90;;;;;;5053958;28;20028;-71
2021/01/09 01:51:54;;;;;;;20.83;13.73;;;6.10;60.90;;;;;;5053942;28;20024;-70
2021/01/09 01:54:21;;;;;;;21.48;13.55;;;6.10;60.90;;;;;;5053933;28;20021;-70
2021/01/09 01:56:53;;;;;;;20.92;13.30;;;6.10;60.90;;;;;;5053898;28;20394;-71
2021/01/09 01:59:19;;;;;;;19.05;12.57;;;6.10;60.90;;;;;;5053784;28;20037;-70
2021/01/09 02:01:49;;;;;;;25.42;15.20;;;6.10;60.80;;;;;;5053717;28;20035;-71
2021/01/09 02:04:14;;;;;;;22.10;14.00;;;6.10;60.70;;;;;;5063700;28;20048;-71
2021/01/09 02:06:41;;;;;;;21.27;13.20;;;6.10;60.70;;;;;;5073671;28;20462;-71
2021/01/09 02:09:22;;;;;;;22.27;13.45;;;6.10;60.70;;;;;;5053329;28;20466;-71
2021/01/09 02:12:07;;;;;;;24.35;14.48;;;6.10;60.70;;;;;;5053330;28;20021;-71
2021/01/09 02:14:35;;;;;;;23.98;14.85;;;6.10;60.70;;;;;;5054590;28;20016;-71
2021/01/09 02:17:02;;;;;;;22.98;13.75;;;6.00;60.60;;;;;;5073153;28;20549;-71
2021/01/09 02:19:32;;;;;;;23.38;12.25;;;6.00;60.60;;;;;;5053973;28;20021;-71
2021/01/09 02:22:00;;;;;;;21.80;13.60;;;6.00;60.60;;;;;;5053555;28;20017;-71
2021/01/09 02:24:25;;;;;;;19.92;13.13;;;6.00;60.40;;;;;;5053277;28;20045;-71
2021/01/09 02:26:51;;;;;;;24.63;15.80;;;6.00;60.40;;;;;;5053232;28;20033;-71
2021/01/09 02:29:17;;;;;;;21.45;13.60;;;6.00;60.40;;;;;;5052895;28;20024;-71
2021/01/09 02:31:52;;;;;;;20.20;12.07;;;6.00;60.40;;;;;;5053144;28;20035;-71
2021/01/09 02:34:20;;;;;;;21.05;12.82;;;6.00;60.40;;;;;;5053179;28;20025;-71
2021/01/09 02:36:47;;;;;;;20.88;12.45;;;6.00;60.50;;;;;;5051687;28;20124;-71
2021/01/09 02:39:13;;;;;;;21.50;12.90;;;6.00;60.50;;;;;;5053140;28;20040;-71
2021/01/09 02:41:40;;;;;;;22.48;14.35;;;6.00;60.50;;;;;;5052682;28;20032;-71
2021/01/09 02:44:15;;;;;;;21.27;13.68;;;6.00;60.40;;;;;;5052856;28;20021;-71
2021/01/09 02:46:41;;;;;;;19.30;12.18;;;6.00;60.50;;;;;;5052972;28;20025;-71
2021/01/09 02:49:09;;;;;;;19.45;12.80;;;6.00;60.50;;;;;;5051323;28;20166;-71
2021/01/09 02:51:35;;;;;;;19.95;12.65;;;6.00;60.60;;;;;;5051136;28;20032;-71
2021/01/09 02:54:01;;;;;;;17.70;11.77;;;6.00;60.70;;;;;;5052453;28;20452;-71
2021/01/09 02:56:26;;;;;;;18.33;12.20;;;6.00;60.70;;;;;;5052266;28;20025;-71
2021/01/09 02:58:52;;;;;;;21.58;11.55;;;6.00;60.80;;;;;;5052616;28;20116;-71
2021/01/09 03:01:18;;;;;;;18.92;12.40;;;6.00;60.70;;;;;;5052512;28;20055;-71
2021/01/09 03:03:44;;;;;;;17.67;11.75;;;6.00;60.80;;;;;;5052633;28;20094;-71
2021/01/09 03:06:10;;;;;;;24.38;13.77;;;6.00;60.80;;;;;;5052446;28;20363;-71
2021/01/09 03:08:35;;;;;;;23.55;13.07;;;6.00;60.80;;;;;;5066610;28;20028;-71
2021/01/09 03:11:01;;;;;;;21.23;13.07;;;6.00;60.80;;;;;;5063047;28;20033;-71
2021/01/09 03:13:27;;;;;;;17.13;11.45;;;6.10;60.80;;;;;;5052341;28;20087;-71
2021/01/09 03:15:52;;;;;;;23.60;13.77;;;6.10;60.90;;;;;;5052363;28;20029;-71
2021/01/09 03:18:18;;;;;;;20.38;12.48;;;6.10;60.90;;;;;;5052489;28;20059;-71
2021/01/09 03:20:44;;;;;;;22.02;14.20;;;6.10;60.80;;;;;;5051276;28;20374;-71
2021/01/09 03:23:10;;;;;;;21.23;12.98;;;6.10;60.70;;;;;;5052182;28;20038;-71
2021/01/09 03:25:35;;;;;;;22.77;14.18;;;6.10;60.60;;;;;;5051200;28;20056;-71
2021/01/09 03:28:01;;;;;;;18.33;11.90;;;6.10;60.60;;;;;;5052345;28;20028;-71
2021/01/09 03:30:27;;;;;;;19.40;13.27;;;6.20;60.70;;;;;;5052260;28;20021;-71
2021/01/09 03:32:53;;;;;;;21.05;13.88;;;6.20;60.70;;;;;;5050930;28;20028;-71
2021/01/09 03:35:20;;;;;;;22.90;14.45;;;6.20;60.70;;;;;;5052198;28;20457;-71
2021/01/09 03:37:46;;;;;;;22.63;14.93;;;6.20;60.50;;;;;;5052252;28;20497;-71
2021/01/09 03:40:12;;;;;;;18.50;12.98;;;6.20;60.30;;;;;;5050768;28;20115;-72
2021/01/09 03:42:38;;;;;;;24.17;14.70;;;6.20;61.10;;;;;;5050911;28;20316;-71
2021/01/09 03:45:04;;;;;;;21.65;13.55;;;6.20;60.20;;;;;;5052155;28;20029;-71
2021/01/09 03:47:30;;;;;;;18.38;12.30;;;6.20;60.30;;;;;;5052127;28;20040;-71
2021/01/09 03:49:55;;;;;;;19.90;12.65;;;6.20;60.30;;;;;;5052060;28;20022;-72
2021/01/09 03:52:21;;;;;;;20.98;13.00;;;6.20;60.30;;;;;;5051803;28;20048;-71
2021/01/09 03:54:47;;;;;;;21.60;12.13;;;6.10;60.30;;;;;;5052079;28;20029;-72
2021/01/09 03:57:13;;;;;;;22.42;13.20;;;6.20;60.50;;;;;;5052079;28;20024;-71
2021/01/09 03:59:38;;;;;;;20.33;12.73;;;6.10;60.40;;;;;;5052004;28;20025;-71
2021/01/09 04:02:04;;;;;;;22.88;14.18;;;6.20;60.50;;;;;;5051934;28;20033;-71
2021/01/09 04:04:30;;;;;;;18.83;11.90;;;6.20;60.50;;;;;;5051882;28;20071;-71
2021/01/09 04:06:55;;;;;;;22.80;12.35;;;6.10;60.50;;;;;;5052451;28;20437;-71
2021/01/09 04:09:21;;;;;;;20.17;12.60;;;6.20;60.50;;;;;;5055837;28;20359;-72
2021/01/09 04:11:47;;;;;;;20.05;12.60;;;6.20;60.50;;;;;;5055881;28;20482;-72
2021/01/09 04:14:13;;;;;;;18.73;12.10;;;6.20;60.50;;;;;;5056082;28;20025;-71
2021/01/09 04:16:38;;;;;;;21.67;12.70;;;6.20;60.60;;;;;;5055559;28;20017;-71
2021/01/09 04:19:04;;;;;;;21.15;13.30;;;6.20;60.70;;;;;;5071048;28;20021;-71
2021/01/09 04:21:30;;;;;;;21.73;12.85;;;6.20;60.60;;;;;;5055416;28;20079;-71
2021/01/09 04:23:56;;;;;;;25.23;13.60;;;6.20;60.60;;;;;;5054031;28;20041;-71
2021/01/09 04:26:22;;;;;;;18.55;12.57;;;6.20;60.50;;;;;;5055486;28;20472;-71
2021/01/09 04:28:47;;;;;;;23.15;13.60;;;6.20;60.60;;;;;;5055387;28;20028;-71
2021/01/09 04:31:14;;;;;;;20.08;12.68;;;6.20;60.50;;;;;;5055346;28;20025;-72
2021/01/09 04:33:41;;;;;;;19.33;12.57;;;6.20;60.50;;;;;;5055287;28;20474;-71
2021/01/09 04:36:07;;;;;;;22.73;14.57;;;6.20;60.40;;;;;;5055305;28;20494;-71
2021/01/09 04:38:33;;;;;;;25.70;16.05;;;6.20;60.20;;;;;;5055189;28;20017;-72
2021/01/09 04:41:00;;;;;;;24.02;15.13;;;6.20;60.00;;;;;;5055083;28;20021;-72
2021/01/09 04:43:26;;;;;;;23.17;15.02;;;6.10;59.90;;;;;;5055083;28;20025;-71
2021/01/09 04:45:52;;;;;;;24.88;14.65;;;6.10;59.90;;;;;;5055189;28;20036;-71
2021/01/09 04:48:19;;;;;;;23.90;14.88;;;6.10;60.00;;;;;;5055090;28;20063;-71
2021/01/09 04:50:50;;;;;;;23.70;15.40;;;6.10;60.00;;;;;;5054805;28;20025;-71
2021/01/09 04:53:18;;;;;;;25.92;16.85;;;6.00;60.00;;;;;;5054874;28;20036;-71
2021/01/09 04:55:46;;;;;;;34.72;15.77;;;6.00;60.00;;;;;;5053642;28;20017;-71
2021/01/09 04:58:12;;;;;;;23.13;14.68;;;6.00;60.20;;;;;;5054743;28;20024;-71
2021/01/09 05:00:38;;;;;;;26.27;15.38;;;6.00;60.30;;;;;;5054818;28;20370;-71
2021/01/09 05:03:04;;;;;;;28.02;18.05;;;5.90;60.30;;;;;;5054570;28;20040;-71
2021/01/09 05:05:30;;;;;;;28.00;17.08;;;5.90;60.30;;;;;;5054734;28;20032;-70
2021/01/09 05:07:56;;;;;;;28.85;17.23;;;5.80;60.30;;;;;;5054783;28;20104;-71
2021/01/09 05:10:23;;;;;;;26.50;15.75;;;5.80;60.40;;;;;;5053645;28;20170;-72
2021/01/09 05:12:49;;;;;;;22.75;14.35;;;5.80;60.50;;;;;;5054656;28;20029;-71
2021/01/09 05:15:14;;;;;;;23.25;13.65;;;5.70;60.50;;;;;;5055199;28;20032;-72
2021/01/09 05:17:40;;;;;;;22.33;14.88;;;5.80;60.70;;;;;;5054223;28;20048;-71
2021/01/09 05:20:09;;;;;;;25.25;15.23;;;5.70;60.70;;;;;;5054468;28;20029;-71
2021/01/09 05:22:37;;;;;;;21.63;14.02;;;5.80;61.00;;;;;;5054509;28;20025;-72
2021/01/09 05:25:04;;;;;;;29.33;14.40;;;5.70;61.00;;;;;;5054199;28;20045;-71
2021/01/09 05:27:30;;;;;;;25.23;15.27;;;5.70;61.00;;;;;;5054283;28;20033;-71
2021/01/09 05:29:57;;;;;;;21.85;13.93;;;5.70;61.10;;;;;;5053015;28;20436;-71
2021/01/09 05:32:23;;;;;;;27.73;17.38;;;5.70;61.10;;;;;;5054304;28;20497;-71
2021/01/09 05:34:51;;;;;;;26.38;16.48;;;5.70;61.10;;;;;;5053015;28;20040;-71
2021/01/09 05:37:25;;;;;;;20.38;13.38;;;5.70;61.20;;;;;;5054261;28;20075;-71
2021/01/09 05:39:56;;;;;;;25.80;14.75;;;5.70;61.20;;;;;;5054174;28;20017;-72
2021/01/09 05:42:28;;;;;;;24.73;14.77;;;5.70;61.20;;;;;;5054099;28;20033;-71
2021/01/09 05:44:56;;;;;;;24.17;15.15;;;5.70;61.20;;;;;;5054041;28;20033;-71
2021/01/09 05:47:28;;;;;;;21.50;14.35;;;5.70;61.20;;;;;;5054082;28;20447;-72
2021/01/09 05:49:59;;;;;;;24.00;16.02;;;5.70;61.20;;;;;;5053779;28;20039;-72
2021/01/09 05:52:26;;;;;;;23.33;14.63;;;5.60;61.20;;;;;;5053851;28;20033;-71
2021/01/09 05:55:01;;;;;;;25.65;15.23;;;5.70;61.40;;;;;;5053891;28;20115;-71
2021/01/09 05:57:31;;;;;;;24.67;14.98;;;5.70;61.40;;;;;;5053872;28;20021;-71
2021/01/09 06:00:04;;;;;;;23.88;15.15;;;5.70;61.50;;;;;;5053700;28;20133;-72
2021/01/09 06:02:49;;;;;;;22.38;14.50;;;5.70;61.50;;;;;;5053758;28;20056;-71
2021/01/09 06:05:18;;;;;;;28.20;15.77;;;5.70;61.50;;;;;;5053715;28;20029;-71
2021/01/09 06:07:48;;;;;;;31.80;17.02;;;5.70;61.60;;;;;;5052296;28;20021;-71
2021/01/09 06:10:16;;;;;;;25.73;15.75;;;5.70;61.50;;;;;;5053664;28;20478;-71
2021/01/09 06:13:00;;;;;;;23.50;14.85;;;5.70;61.40;;;;;;5053456;28;20029;-71
2021/01/09 06:15:31;;;;;;;24.40;14.93;;;5.70;61.40;;;;;;5053514;28;20044;-71
2021/01/09 06:18:00;;;;;;;22.77;14.20;;;5.70;61.40;;;;;;5053527;28;20025;-71
2021/01/09 06:20:26;;;;;;;26.35;15.60;;;5.70;61.40;;;;;;5053284;28;20024;-71
2021/01/09 06:22:57;;;;;;;23.52;14.93;;;5.70;62.10;;;;;;5052131;28;20033;-72
2021/01/09 06:25:23;;;;;;;21.73;13.82;;;5.70;61.40;;;;;;5053141;28;20037;-72
2021/01/09 06:27:52;;;;;;;28.50;16.95;;;5.70;61.30;;;;;;5053420;28;20029;-71
2021/01/09 06:30:20;;;;;;;23.52;14.68;;;5.70;61.30;;;;;;5053202;28;20032;-71
2021/01/09 06:32:55;;;;;;;27.33;15.90;;;5.70;61.40;;;;;;5053934;28;20387;-71
2021/01/09 06:35:21;;;;;;;28.25;16.63;;;5.70;62.20;;;;;;5052820;28;20025;-71
2021/01/09 06:37:47;;;;;;;25.27;15.70;;;5.70;61.50;;;;;;5052803;28;20021;-72
2021/01/09 06:40:16;;;;;;;25.23;15.75;;;5.70;61.50;;;;;;5053884;28;20027;-71
2021/01/09 06:42:45;;;;;;;23.70;14.85;;;5.70;61.50;;;;;;5053897;28;20394;-71
2021/01/09 06:45:12;;;;;;;24.40;15.75;;;5.70;61.50;;;;;;5053852;28;20027;-71
2021/01/09 06:47:38;;;;;;;28.40;16.40;;;5.70;61.50;;;;;;5054324;28;20075;-71
2021/01/09 06:50:19;;;;;;;28.20;16.13;;;5.70;61.50;;;;;;5052340;28;20029;-71
2021/01/09 06:53:07;;;;;;;24.17;14.20;;;5.60;61.60;;;;;;5052399;28;20025;-71
2021/01/09 06:55:36;;;;;;;27.13;16.50;;;5.60;61.60;;;;;;5053975;28;20105;-72
2021/01/09 06:58:02;;;;;;;29.88;17.85;;;5.70;61.70;;;;;;5052363;28;20032;-71
2021/01/09 07:00:28;;;;;;;32.13;18.48;;;5.70;61.70;;;;;;5053316;28;20031;-71
2021/01/09 07:03:16;;;;;;;29.75;18.40;;;5.70;61.70;;;;;;5053558;28;20095;-71
2021/01/09 07:05:49;;;;;;;29.15;17.13;;;5.70;61.70;;;;;;5053554;28;20039;-71
2021/01/09 07:08:25;;;;;;;29.30;18.20;;;5.80;61.80;;;;;;5053816;28;20032;-72
2021/01/09 07:10:53;;;;;;;27.02;15.77;;;5.80;61.70;;;;;;5053351;28;20053;-72
2021/01/09 07:13:21;;;;;;;26.98;17.10;;;5.80;61.70;;;;;;5053634;28;20417;-72
2021/01/09 07:15:47;;;;;;;29.13;18.00;;;5.90;61.80;;;;;;5053572;28;20452;-72
2021/01/09 07:18:13;;;;;;;28.98;18.17;;;5.90;61.60;;;;;;5053341;28;20045;-72
2021/01/09 07:20:41;;;;;;;25.02;16.52;;;6.00;61.50;;;;;;5053484;28;20091;-72
2021/01/09 07:23:13;;;;;;;27.80;16.30;;;6.00;61.40;;;;;;5053080;28;20036;-72
2021/01/09 07:25:40;;;;;;;26.27;17.15;;;6.10;61.40;;;;;;5053592;28;20071;-71
2021/01/09 07:28:17;;;;;;;27.42;16.98;;;6.10;61.40;;;;;;5053549;28;20104;-71
2021/01/09 07:30:44;;;;;;;27.67;16.08;;;6.10;61.30;;;;;;5053027;28;20029;-72
2021/01/09 07:33:14;;;;;;;28.77;16.63;;;6.20;61.30;;;;;;5051799;28;20079;-71
2021/01/09 07:35:43;;;;;;;38.10;22.98;;;6.20;61.10;;;;;;5053224;28;20501;-71
2021/01/09 07:38:10;;;;;;;32.42;18.52;;;6.20;60.90;;;;;;5053233;28;20382;-71
2021/01/09 07:40:45;;;;;;;29.65;18.58;;;6.30;60.90;;;;;;5053337;28;20116;-72
2021/01/09 07:43:32;;;;;;;30.67;17.88;;;6.30;60.90;;;;;;5057314;28;20566;-72
2021/01/09 07:46:00;;;;;;;26.52;17.10;;;6.30;60.60;;;;;;5057189;28;20569;-71
2021/01/09 07:48:34;;;;;;;28.05;18.20;;;6.30;60.60;;;;;;5057161;28;20025;-71
2021/01/09 07:51:00;;;;;;;30.77;19.00;;;6.30;60.60;;;;;;5057084;28;20036;-71
2021/01/09 07:53:27;;;;;;;25.83;16.50;;;6.40;60.50;;;;;;5055685;28;20033;-71
2021/01/09 07:55:53;;;;;;;26.52;16.30;;;6.40;60.50;;;;;;5057556;28;20029;-71
2021/01/09 07:58:42;;;;;;;27.13;17.50;;;6.50;60.50;;;;;;5055647;28;20382;-71
2021/01/09 08:01:08;;;;;;;30.40;18.75;;;6.50;60.40;;;;;;5066915;28;20048;-71
2021/01/09 08:03:34;;;;;;;28.00;18.15;;;6.50;60.40;;;;;;5073550;28;20509;-71
2021/01/09 08:06:00;;;;;;;29.58;18.23;;;6.60;60.20;;;;;;5076900;28;20504;-72
2021/01/09 08:08:26;;;;;;;25.73;16.88;;;6.60;60.00;;;;;;5057523;28;20032;-71
2021/01/09 08:10:52;;;;;;;27.77;17.55;;;6.70;60.00;;;;;;5061364;28;20025;-71
2021/01/09 08:13:21;;;;;;;26.63;17.48;;;6.70;60.00;;;;;;5068035;28;20075;-71
2021/01/09 08:15:47;;;;;;;28.83;18.50;;;6.70;59.90;;;;;;5056798;28;20120;-71
2021/01/09 08:18:13;;;;;;;31.90;19.08;;;6.70;59.80;;;;;;5056574;28;20100;-71
2021/01/09 08:20:39;;;;;;;34.47;20.55;;;6.80;59.70;;;;;;5059743;28;20182;-71
2021/01/09 08:23:07;;;;;;;31.15;18.30;;;6.80;59.20;;;;;;5063329;28;20541;-72
2021/01/09 08:25:42;;;;;;;36.10;19.02;;;6.80;59.20;;;;;;5056989;28;20155;-72
2021/01/09 08:28:09;;;;;;;29.67;18.70;;;6.80;59.30;;;;;;5056796;28;20032;-72
2021/01/09 08:30:38;;;;;;;30.30;17.17;;;6.80;59.30;;;;;;5056368;28;20112;-71
2021/01/09 08:33:06;;;;;;;33.25;19.80;;;6.90;59.50;;;;;;5056210;28;20103;-71
2021/01/09 08:35:33;;;;;;;31.30;17.95;;;6.90;59.40;;;;;;5055047;28;20112;-71
2021/01/09 08:38:00;;;;;;;29.85;18.50;;;7.00;59.40;;;;;;5056216;28;20017;-71
2021/01/09 08:40:26;;;;;;;28.48;18.58;;;7.00;59.40;;;;;;5064994;28;20028;-72
2021/01/09 08:42:56;;;;;;;34.03;20.48;;;7.10;59.20;;;;;;5074385;28;20024;-72
2021/01/09 08:45:55;;;;;;;31.17;20.45;;;7.10;59.20;;;;;;5066997;28;20025;-70
2021/01/09 08:48:24;;;;;;;29.70;18.23;;;7.20;59.10;;;;;;5073989;28;20412;-71
2021/01/09 08:50:58;;;;;;;30.02;17.58;;;7.30;59.10;;;;;;5085109;28;20040;-70
2021/01/09 08:53:28;;;;;;;27.77;17.83;;;7.30;59.10;;;;;;5093610;28;20027;-71
2021/01/09 08:56:04;;;;;;;31.15;18.65;;;7.40;59.00;;;;;;5094312;28;20024;-70
2021/01/09 08:58:31;;;;;;;30.25;20.52;;;7.50;58.90;;;;;;5093898;28;20024;-70
2021/01/09 09:01:01;;;;;;;25.95;17.48;;;7.50;58.30;;;;;;5086965;28;20035;-71
2021/01/09 09:03:28;;;;;;;28.42;17.85;;;7.60;58.50;;;;;;5085641;28;20101;-70
2021/01/09 09:05:56;;;;;;;32.40;19.10;;;7.60;58.50;;;;;;5093171;28;20460;-71
2021/01/09 09:08:28;;;;;;;27.20;18.25;;;7.70;58.50;;;;;;5090116;28;20074;-71
2021/01/09 09:10:54;;;;;;;33.05;20.48;;;7.70;58.20;;;;;;5079581;28;20066;-71
2021/01/09 09:13:24;;;;;;;28.30;18.10;;;7.80;57.90;;;;;;5073022;28;20110;-71
2021/01/09 09:15:51;;;;;;;31.85;19.75;;;7.80;57.70;;;;;;5046074;23;20056;-72
2021/01/09 09:18:18;;;;;;;31.33;18.75;;;7.80;57.40;;;;;;5035463;28;20025;-72
2021/01/09 09:20:47;;;;;;;29.95;19.30;;;7.90;57.60;;;;;;5033545;28;20442;-73
2021/01/09 09:23:14;;;;;;;29.45;17.98;;;7.90;57.40;;;;;;5035073;28;20033;-72
2021/01/09 09:25:40;;;;;;;33.38;18.42;;;8.00;57.60;;;;;;5034993;28;20021;-72
2021/01/09 09:28:06;;;;;;;36.97;20.60;;;8.00;57.70;;;;;;5035217;28;20497;-72
2021/01/09 09:30:31;;;;;;;33.28;20.90;;;8.10;57.50;;;;;;5034991;28;20021;-73
2021/01/09 09:33:13;;;;;;;33.22;20.80;;;8.20;57.50;;;;;;5034481;28;20034;-72
2021/01/09 09:35:40;;;;;;;34.95;22.23;;;8.20;57.20;;;;;;5034925;28;20021;-73
2021/01/09 09:38:09;;;;;;;31.20;20.90;;;8.30;56.90;;;;;;5035150;28;20022;-72
2021/01/09 09:40:36;;;;;;;31.75;20.20;;;8.30;56.90;;;;;;5034186;28;20116;-72
2021/01/09 09:43:19;;;;;;;29.77;19.50;;;8.30;56.80;;;;;;5034814;28;20083;-72
2021/01/09 09:46:05;;;;;;;32.75;20.90;;;8.40;56.80;;;;;;5034258;28;20055;-72
2021/01/09 09:48:32;;;;;;;31.00;19.00;;;8.50;56.60;;;;;;5025899;28;20034;-71
2021/01/09 09:51:03;;;;;;;29.70;19.63;;;8.50;56.40;;;;;;5032128;28;20120;-73
2021/01/09 09:53:29;;;;;;;31.02;20.02;;;8.60;56.40;;;;;;5033518;28;20554;-73
2021/01/09 09:56:18;;;;;;;36.80;22.33;;;8.60;56.20;;;;;;5033206;28;20116;-72
2021/01/09 09:58:45;;;;;;;30.98;20.27;;;8.60;55.90;;;;;;5049493;28;20032;-73
2021/01/09 10:01:22;;;;;;;34.00;21.50;;;8.70;55.80;;;;;;5034654;28;20024;-73
2021/01/09 10:03:49;;;;;;;32.03;21.27;;;8.70;55.60;;;;;;5034521;28;20075;-73
2021/01/09 10:06:15;;;;;;;30.27;19.83;;;8.70;55.30;;;;;;5033013;28;20511;-73
2021/01/09 10:08:42;;;;;;;31.63;20.58;;;8.70;55.40;;;;;;5054045;28;20504;-73
2021/01/09 10:11:08;;;;;;;36.63;21.35;;;8.70;55.40;;;;;;5048346;28;20021;-74
2021/01/09 10:13:33;;;;;;;35.85;22.95;;;8.80;55.10;;;;;;5033225;28;20033;-73
2021/01/09 10:16:00;;;;;;;28.98;20.02;;;8.80;54.80;;;;;;5011477;28;20546;-73
2021/01/09 10:18:28;;;;;;;30.80;19.95;;;8.80;54.70;;;;;;4995036;28;20029;-73
2021/01/09 10:20:54;;;;;;;33.15;21.33;;;8.80;55.10;;;;;;5004720;28;20032;-73
2021/01/09 10:23:20;;;;;;;35.08;21.85;;;8.80;55.10;;;;;;5009090;28;20026;-73
2021/01/09 10:25:46;;;;;;;33.22;21.38;;;8.90;55.10;;;;;;5013079;28;20109;-73
2021/01/09 10:28:12;;;;;;;30.50;19.70;;;8.90;55.00;;;;;;5012893;28;20025;-74
2021/01/09 10:30:37;;;;;;;33.67;22.65;;;9.00;55.10;;;;;;5014054;28;20479;-73
2021/01/09 10:33:03;;;;;;;31.27;20.75;;;9.10;54.50;;;;;;5014239;28;20407;-73
2021/01/09 10:35:30;;;;;;;35.53;21.88;;;9.10;54.20;;;;;;5012268;28;20022;-73
2021/01/09 10:37:56;;;;;;;34.15;22.77;;;9.10;53.90;;;;;;5014124;28;20022;-73
2021/01/09 10:40:21;;;;;;;33.85;21.75;;;9.10;53.70;;;;;;5014354;28;20026;-72
2021/01/09 10:42:47;;;;;;;33.10;21.45;;;9.20;53.90;;;;;;5013351;28;20172;-72
2021/01/09 10:45:16;;;;;;;34.38;22.65;;;9.20;53.90;;;;;;5011985;28;20045;-73
2021/01/09 10:47:42;;;;;;;32.85;21.77;;;9.20;53.30;;;;;;5012943;28;20053;-72
2021/01/09 10:50:10;;;;;;;34.20;22.20;;;9.20;53.10;;;;;;5012770;28;20038;-73
2021/01/09 10:52:36;;;;;;;31.83;21.77;;;9.20;53.10;;;;;;5013101;28;20021;-72
2021/01/09 10:55:04;;;;;;;30.40;19.42;;;9.20;53.10;;;;;;5010425;28;20365;-72
2021/01/09 10:57:30;;;;;;;33.33;22.35;;;9.20;53.30;;;;;;5012028;28;20018;-73
2021/01/09 10:59:56;;;;;;;31.55;20.30;;;9.30;53.30;;;;;;5012566;28;20025;-72
2021/01/09 11:02:22;;;;;;;34.13;22.08;;;9.30;53.40;;;;;;5012776;28;20518;-72
2021/01/09 11:04:50;;;;;;;33.58;21.40;;;9.40;52.90;;;;;;5012907;28;20034;-71
2021/01/09 11:07:16;;;;;;;30.33;20.33;;;9.40;52.70;;;;;;5012711;28;20506;-72
2021/01/09 11:09:43;;;;;;;32.35;21.52;;;9.40;52.70;;;;;;5012380;28;20037;-72
2021/01/09 11:12:12;;;;;;;36.58;23.25;;;9.40;52.70;;;;;;5012463;28;20041;-74
2021/01/09 11:14:38;;;;;;;32.13;20.80;;;9.40;52.30;;;;;;5012111;28;20037;-72
2021/01/09 11:17:05;;;;;;;32.75;21.00;;;9.40;52.50;;;;;;5011147;28;20026;-72
2021/01/09 11:19:31;;;;;;;32.92;21.80;;;9.50;52.40;;;;;;5012750;28;20053;-72
2021/01/09 11:22:03;;;;;;;29.55;20.65;;;9.50;52.30;;;;;;5012851;28;20025;-72
2021/01/09 11:24:33;;;;;;;35.35;23.73;;;9.50;52.20;;;;;;5012682;28;20091;-72
2021/01/09 11:27:03;;;;;;;32.47;21.50;;;9.60;52.10;;;;;;5011735;28;20117;-72
2021/01/09 11:29:31;;;;;;;35.10;22.50;;;9.50;51.60;;;;;;5012459;28;20026;-72
2021/01/09 11:32:02;;;;;;;35.28;22.08;;;9.50;51.70;;;;;;5012432;28;20084;-72
2021/01/09 11:34:29;;;;;;;33.95;20.60;;;9.40;51.60;;;;;;5011842;28;20048;-71
2021/01/09 11:36:55;;;;;;;37.03;22.45;;;9.40;51.70;;;;;;5011959;28;20137;-72
2021/01/09 11:39:21;;;;;;;34.80;22.42;;;9.30;51.60;;;;;;5011600;28;20191;-72
2021/01/09 11:41:47;;;;;;;32.63;21.52;;;9.30;51.60;;;;;;5010037;28;20113;-72
2021/01/09 11:44:15;;;;;;;33.75;21.25;;;9.30;51.80;;;;;;5012361;28;20042;-72
2021/01/09 11:46:41;;;;;;;29.23;18.60;;;9.30;51.90;;;;;;5009989;28;20038;-72
2021/01/09 11:49:07;;;;;;;26.20;18.73;;;9.30;52.20;;;;;;5012337;28;20026;-72
2021/01/09 11:51:33;;;;;;;31.08;20.05;;;9.40;52.40;;;;;;5010332;28;20030;-73
2021/01/09 11:53:59;;;;;;;28.10;18.63;;;9.40;52.10;;;;;;5012462;28;20030;-72
2021/01/09 11:56:29;;;;;;;32.50;20.55;;;9.40;51.90;;;;;;5012430;28;20022;-72
2021/01/09 11:58:55;;;;;;;27.73;19.02;;;9.40;51.60;;;;;;5011282;28;20022;-72
2021/01/09 12:01:24;;;;;;;26.45;17.23;;;9.40;51.70;;;;;;4993256;28;20023;-72
2021/01/09 12:04:01;;;;;;;26.75;18.58;;;9.50;52.00;;;;;;4999733;28;20387;-72
2021/01/09 12:06:27;;;;;;;30.33;20.15;;;9.50;51.90;;;;;;5012084;28;20080;-72
2021/01/09 12:08:53;;;;;;;29.67;17.73;;;9.60;51.80;;;;;;5012277;28;20034;-71
2021/01/09 12:11:20;;;;;;;29.23;18.83;;;9.60;52.00;;;;;;5012885;28;20113;-72
2021/01/09 12:13:51;;;;;;;28.15;18.73;;;9.60;51.50;;;;;;5012469;28;20033;-72
2021/01/09 12:16:29;;;;;;;30.00;18.90;;;9.60;51.70;;;;;;4993397;28;20034;-72
2021/01/09 12:18:59;;;;;;;27.55;18.08;;;9.60;51.30;;;;;;5006159;28;20018;-72
2021/01/09 12:21:28;;;;;;;31.30;21.02;;;9.50;51.40;;;;;;5012888;28;20399;-71
2021/01/09 12:23:55;;;;;;;28.75;19.45;;;9.50;51.60;;;;;;5012413;28;20026;-72
2021/01/09 12:26:21;;;;;;;28.45;18.52;;;9.50;51.80;;;;;;5010603;28;20530;-72
2021/01/09 12:28:48;;;;;;;33.45;21.58;;;9.50;51.70;;;;;;5012503;28;20045;-72
2021/01/09 12:31:14;;;;;;;29.10;19.45;;;9.50;51.10;;;;;;5016188;28;20425;-72
2021/01/09 12:33:45;;;;;;;28.92;19.52;;;9.50;51.40;;;;;;5015894;28;20022;-72
2021/01/09 12:36:16;;;;;;;30.05;19.60;;;9.40;51.10;;;;;;5015865;28;20026;-72
2021/01/09 12:38:43;;;;;;;29.38;19.63;;;9.30;51.20;;;;;;5016005;28;20431;-72
2021/01/09 12:41:11;;;;;;;27.60;17.58;;;9.30;51.30;;;;;;5014453;28;20109;-72